Time;durP1;ratioP1;P1;durP2;ratioP2;P2;SDS_P1;SDS_P2;PMS_P1;PMS_P2;Temp;Humidity;BMP_temperature;BMP_pressure;BME280_temperature;BME280_humidity;BME280_pressure;Samples;Min_cycle;Max_cycle;Signal;HPM_P1;HPM_P2
2022/06/12 00:00:53;;;;;;;;;;;20.30;70.70;;;;;;5052395;28;925;-67
2022/06/12 00:03:19;;;;;;;;;;;20.30;70.70;;;;;;5052415;28;1288;-67
2022/06/12 00:05:45;;;;;;;;;;;20.30;70.70;;;;;;5053400;28;921;-67
2022/06/12 00:08:11;;;;;;;;;;;20.30;70.70;;;;;;5052317;28;1956;-67
2022/06/12 00:10:37;;;;;;;;;;;20.30;70.70;;;;;;5050764;28;803;-67
2022/06/12 00:13:03;;;;;;;;;;;20.30;70.70;;;;;;5051827;28;1301;-68
2022/06/12 00:15:28;;;;;;;;;;;20.30;70.70;;;;;;5051563;28;1187;-67
2022/06/12 00:17:54;;;;;;;;;;;20.30;70.70;;;;;;5051456;28;1184;-67
2022/06/12 00:20:19;;;;;;;;;;;20.30;70.70;;;;;;5051101;28;886;-67
2022/06/12 00:22:45;;;;;;;;;;;20.30;70.70;;;;;;5051612;28;796;-67
2022/06/12 00:25:12;;;;;;;;;;;20.30;70.70;;;;;;5060290;28;1304;-68
2022/06/12 00:27:38;;;;;;;;;;;20.30;70.70;;;;;;5071511;28;1969;-68
2022/06/12 00:30:04;;;;;;;;;;;20.30;70.70;;;;;;5071947;28;815;-67
2022/06/12 00:32:30;;;;;;;;;;;20.30;70.70;;;;;;5071388;28;1163;-67
2022/06/12 00:34:56;;;;;;;;;;;20.30;70.70;;;;;;5053203;28;1273;-68
2022/06/12 00:37:22;;;;;;;;;;;20.30;70.70;;;;;;5051267;28;1276;-67
2022/06/12 00:39:48;;;;;;;;;;;20.30;70.70;;;;;;5052047;28;767;-67
2022/06/12 00:42:33;;;;;;;;;;;20.30;70.70;;;;;;5051956;28;862;-67
2022/06/12 00:45:00;;;;;;;;;;;20.30;70.70;;;;;;5051754;28;1573;-67
2022/06/12 00:47:25;;;;;;;;;;;20.30;70.70;;;;;;5051307;28;1956;-68
2022/06/12 00:49:56;;;;;;;;;;;20.30;70.70;;;;;;5050264;28;914;-67
2022/06/12 00:52:21;;;;;;;;;;;20.30;70.70;;;;;;5034436;28;1231;-67
2022/06/12 00:54:47;;;;;;;;;;;20.30;70.70;;;;;;5052557;28;1207;-67
2022/06/12 00:57:13;;;;;;;;;;;20.30;70.70;;;;;;5052951;28;886;-67
2022/06/12 00:59:46;;;;;;;;;;;20.30;70.70;;;;;;5050908;28;808;-67
2022/06/12 01:02:12;;;;;;;;;;;20.30;70.70;;;;;;5050927;28;820;-67
2022/06/12 01:07:23;;;;;;;;;;;20.30;70.70;;;;;;5050762;28;1959;-67
2022/06/12 01:09:48;;;;;;;;;;;20.30;70.70;;;;;;5050689;28;893;-67
2022/06/12 01:12:15;;;;;;;;;;;20.30;70.70;;;;;;5050617;28;826;-67
2022/06/12 01:14:41;;;;;;;;;;;20.30;70.70;;;;;;5050394;28;1221;-67
2022/06/12 01:17:07;;;;;;;;;;;20.30;70.70;;;;;;5050779;28;817;-67
2022/06/12 01:19:53;;;;;;;;;;;20.30;70.70;;;;;;5050486;28;1169;-67
2022/06/12 01:22:30;;;;;;;;;;;20.30;70.70;;;;;;5051654;28;1132;-67
2022/06/12 01:25:02;;;;;;;;;;;20.30;70.70;;;;;;5057219;28;1228;-67
2022/06/12 01:27:47;;;;;;;;;;;20.30;70.70;;;;;;5069838;28;2165;-67
2022/06/12 01:30:20;;;;;;;;;;;20.30;70.70;;;;;;5063685;28;1172;-67
2022/06/12 01:32:46;;;;;;;;;;;20.30;70.70;;;;;;5069222;28;1169;-67
2022/06/12 01:35:30;;;;;;;;;;;20.30;70.70;;;;;;5061679;28;1890;-68
2022/06/12 01:37:58;;;;;;;;;;;20.30;70.70;;;;;;5064125;28;1340;-68
2022/06/12 01:40:42;;;;;;;;;;;20.30;70.70;;;;;;5063085;28;1916;-67
2022/06/12 01:43:12;;;;;;;;;;;20.30;70.70;;;;;;5062938;28;1276;-67
2022/06/12 01:45:57;;;;;;;;;;;20.30;70.70;;;;;;5059950;28;1246;-66
2022/06/12 01:48:41;;;;;;;;;;;20.30;70.70;;;;;;5062050;28;1963;-67
2022/06/12 01:51:27;;;;;;;;;;;20.30;70.70;;;;;;5060530;28;1259;-67
2022/06/12 01:53:57;;;;;;;;;;;20.30;70.70;;;;;;5063207;28;1358;-67
2022/06/12 01:56:32;;;;;;;;;;;20.30;70.70;;;;;;5059721;28;1183;-67
2022/06/12 01:59:00;;;;;;;;;;;20.30;70.80;;;;;;5062215;28;1254;-67
2022/06/12 02:01:34;;;;;;;;;;;20.30;70.70;;;;;;5061350;28;1283;-67
2022/06/12 02:04:02;;;;;;;;;;;20.30;70.70;;;;;;5065283;28;1224;-68
2022/06/12 02:06:38;;;;;;;;;;;20.30;70.80;;;;;;5064860;28;1267;-68
2022/06/12 02:09:06;;;;;;;;;;;20.30;70.80;;;;;;5064800;28;1910;-67
2022/06/12 02:14:20;;;;;;;;;;;20.30;70.70;;;;;;5062051;28;1308;-66
2022/06/12 02:16:47;;;;;;;;;;;20.30;70.70;;;;;;5048315;28;1244;-67
2022/06/12 02:19:20;;;;;;;;;;;20.30;70.80;;;;;;5062706;28;1191;-66
2022/06/12 02:21:48;;;;;;;;;;;20.30;70.70;;;;;;5064110;28;1254;-66
2022/06/12 02:24:16;;;;;;;;;;;20.30;70.80;;;;;;5063041;28;1288;-68
2022/06/12 02:26:45;;;;;;;;;;;20.30;70.70;;;;;;5063770;28;1212;-68
2022/06/12 02:29:11;;;;;;;;;;;20.30;70.80;;;;;;5063572;28;1975;-68
2022/06/12 02:31:37;;;;;;;;;;;20.30;70.70;;;;;;5062803;28;1239;-67
2022/06/12 02:34:04;;;;;;;;;;;20.30;70.80;;;;;;5062832;28;1382;-66
2022/06/12 02:36:34;;;;;;;;;;;20.30;70.80;;;;;;5064463;28;1236;-66
2022/06/12 02:39:19;;;;;;;;;;;20.30;70.80;;;;;;5063404;28;1199;-69
2022/06/12 02:41:47;;;;;;;;;;;20.30;70.80;;;;;;5063923;28;1212;-69
2022/06/12 02:44:16;;;;;;;;;;;20.30;70.70;;;;;;5064756;28;1239;-67
2022/06/12 02:46:45;;;;;;;;;;;20.30;70.80;;;;;;5073548;28;855;-67
2022/06/12 02:49:11;;;;;;;;;;;20.30;70.80;;;;;;5074528;28;1910;-66
2022/06/12 02:51:41;;;;;;;;;;;20.30;70.70;;;;;;5072890;28;886;-66
2022/06/12 02:54:10;;;;;;;;;;;20.30;70.80;;;;;;5073618;28;1256;-66
2022/06/12 02:56:41;;;;;;;;;;;20.30;70.80;;;;;;5074676;28;894;-67
2022/06/12 02:59:07;;;;;;;;;;;20.30;70.80;;;;;;5074411;28;822;-66
2022/06/12 03:01:42;;;;;;;;;;;20.30;70.70;;;;;;5074198;28;751;-66
2022/06/12 03:04:12;;;;;;;;;;;20.30;70.80;;;;;;5073431;28;1209;-67
2022/06/12 03:06:38;;;;;;;;;;;20.30;70.80;;;;;;5056494;28;1180;-67
2022/06/12 03:09:04;;;;;;;;;;;20.30;70.80;;;;;;5072854;28;1906;-67
2022/06/12 03:11:33;;;;;;;;;;;20.30;70.80;;;;;;5054741;28;1069;-66
2022/06/12 03:13:59;;;;;;;;;;;20.30;70.80;;;;;;5074140;28;1196;-66
2022/06/12 03:16:29;;;;;;;;;;;20.30;70.70;;;;;;5073046;28;787;-66
2022/06/12 03:19:02;;;;;;;;;;;20.30;70.80;;;;;;5064079;28;1129;-66
2022/06/12 03:21:46;;;;;;;;;;;20.30;70.80;;;;;;5052377;28;862;-67
2022/06/12 03:24:38;;;;;;;;;;;20.30;70.80;;;;;;5054393;28;1217;-66
2022/06/12 03:27:13;;;;;;;;;;;20.30;70.80;;;;;;5030035;28;1125;-67
2022/06/12 03:29:42;;;;;;;;;;;20.20;70.70;;;;;;5069147;28;1914;-66
2022/06/12 03:32:11;;;;;;;;;;;20.30;70.80;;;;;;5068701;28;827;-66
2022/06/12 03:34:40;;;;;;;;;;;20.30;70.80;;;;;;5083196;28;1290;-67
2022/06/12 03:37:07;;;;;;;;;;;20.30;70.80;;;;;;5052433;28;942;-66
2022/06/12 03:39:37;;;;;;;;;;;20.30;70.80;;;;;;5064646;28;2143;-67
2022/06/12 03:42:19;;;;;;;;;;;20.30;70.80;;;;;;5066145;28;1237;-67
2022/06/12 03:44:48;;;;;;;;;;;20.30;70.80;;;;;;5054268;28;1276;-67
2022/06/12 03:47:15;;;;;;;;;;;20.30;70.80;;;;;;5060676;28;1004;-66
2022/06/12 03:49:45;;;;;;;;;;;20.30;70.80;;;;;;5062455;28;1902;-69
2022/06/12 03:52:31;;;;;;;;;;;20.30;70.80;;;;;;5046476;28;1271;-69
2022/06/12 03:55:03;;;;;;;;;;;20.30;71.60;;;;;;5063331;28;1862;-69
2022/06/12 04:00:18;;;;;;;;;;;20.30;70.80;;;;;;5070346;28;1011;-69
2022/06/12 04:02:47;;;;;;;;;;;20.30;70.80;;;;;;5052278;28;815;-68
2022/06/12 04:05:42;;;;;;;;;;;20.30;70.80;;;;;;5052237;28;1308;-68
2022/06/12 04:08:09;;;;;;;;;;;20.30;70.80;;;;;;5053766;28;1902;-69
2022/06/12 04:10:36;;;;;;;;;;;20.30;70.80;;;;;;5049904;28;819;-65
2022/06/12 04:13:02;;;;;;;;;;;20.30;70.80;;;;;;5050643;28;1211;-65
2022/06/12 04:15:32;;;;;;;;;;;20.30;70.80;;;;;;5051097;28;887;-65
2022/06/12 04:17:58;;;;;;;;;;;20.30;70.80;;;;;;5050995;28;1118;-66
2022/06/12 04:20:24;;;;;;;;;;;20.30;70.80;;;;;;5049908;28;1377;-66
2022/06/12 04:22:56;;;;;;;;;;;20.30;70.80;;;;;;5050430;28;1024;-66
2022/06/12 04:25:26;;;;;;;;;;;20.30;70.80;;;;;;5060684;28;1980;-67
2022/06/12 04:27:51;;;;;;;;;;;20.30;70.80;;;;;;5065300;28;1957;-66
2022/06/12 04:30:19;;;;;;;;;;;20.30;70.80;;;;;;5061655;28;1086;-65
2022/06/12 04:32:45;;;;;;;;;;;20.30;70.80;;;;;;5070582;28;1169;-64
2022/06/12 04:35:10;;;;;;;;;;;20.30;70.80;;;;;;5050306;28;1158;-66
2022/06/12 04:37:36;;;;;;;;;;;20.30;70.80;;;;;;5057342;28;1892;-66
2022/06/12 04:40:02;;;;;;;;;;;20.30;70.80;;;;;;5060810;28;1459;-65
2022/06/12 04:42:30;;;;;;;;;;;20.30;71.60;;;;;;5069653;28;1056;-65
2022/06/12 04:44:57;;;;;;;;;;;20.30;70.80;;;;;;5058600;28;1262;-66
2022/06/12 04:47:23;;;;;;;;;;;20.30;70.80;;;;;;5049983;28;847;-66
2022/06/12 04:49:49;;;;;;;;;;;20.30;70.80;;;;;;5049691;28;1898;-66
2022/06/12 04:52:14;;;;;;;;;;;20.30;70.90;;;;;;5048324;28;843;-66
2022/06/12 04:54:40;;;;;;;;;;;20.30;70.80;;;;;;5050959;28;1229;-65
2022/06/12 04:57:06;;;;;;;;;;;20.30;70.80;;;;;;5049470;28;1838;-67
2022/06/12 04:59:31;;;;;;;;;;;20.30;70.80;;;;;;5068532;28;774;-66
2022/06/12 05:01:57;;;;;;;;;;;20.30;70.80;;;;;;5070477;28;1106;-66
2022/06/12 05:04:24;;;;;;;;;;;20.30;70.80;;;;;;5070074;28;1292;-67
2022/06/12 05:06:50;;;;;;;;;;;20.30;70.80;;;;;;5070876;28;867;-68
2022/06/12 05:09:15;;;;;;;;;;;20.30;70.80;;;;;;5072538;28;1953;-68
2022/06/12 05:11:41;;;;;;;;;;;20.30;70.80;;;;;;5070338;28;980;-67
2022/06/12 05:14:06;;;;;;;;;;;20.30;70.80;;;;;;5072409;28;1196;-67
2022/06/12 05:16:39;;;;;;;;;;;20.30;70.80;;;;;;5072728;28;1013;-66
2022/06/12 05:19:05;;;;;;;;;;;20.30;70.80;;;;;;5060964;28;1050;-66
2022/06/12 05:21:30;;;;;;;;;;;20.30;70.80;;;;;;5050097;28;878;-67
2022/06/12 05:23:56;;;;;;;;;;;20.30;70.80;;;;;;5050917;28;1232;-67
2022/06/12 05:26:22;;;;;;;;;;;20.30;70.80;;;;;;5068558;28;1140;-66
2022/06/12 05:28:47;;;;;;;;;;;20.30;70.80;;;;;;5072185;28;1961;-67
2022/06/12 05:31:13;;;;;;;;;;;20.30;70.80;;;;;;5071566;28;1017;-67
2022/06/12 05:33:39;;;;;;;;;;;20.30;70.80;;;;;;5063102;28;1265;-68
2022/06/12 05:36:05;;;;;;;;;;;20.30;70.80;;;;;;5054689;28;910;-68
2022/06/12 05:38:30;;;;;;;;;;;20.30;70.80;;;;;;5054870;28;867;-68
2022/06/12 05:40:56;;;;;;;;;;;20.30;70.80;;;;;;5055238;28;887;-66
2022/06/12 05:43:21;;;;;;;;;;;20.30;70.80;;;;;;5055840;28;1282;-68
2022/06/12 05:45:47;;;;;;;;;;;20.30;70.80;;;;;;5054950;28;882;-67
2022/06/12 05:48:14;;;;;;;;;;;20.30;70.80;;;;;;5055814;28;1948;-67
2022/06/12 05:50:47;;;;;;;;;;;20.30;70.80;;;;;;5054138;28;861;-67
2022/06/12 05:53:12;;;;;;;;;;;20.30;70.80;;;;;;5054402;28;1203;-66
2022/06/12 05:55:37;;;;;;;;;;;20.30;70.80;;;;;;5054461;28;911;-66
2022/06/12 05:58:03;;;;;;;;;;;20.30;70.80;;;;;;5054473;28;1073;-66
2022/06/12 06:00:29;;;;;;;;;;;20.30;70.80;;;;;;5053803;28;1079;-67
2022/06/12 06:02:54;;;;;;;;;;;20.30;70.80;;;;;;5055340;28;1290;-68
2022/06/12 06:05:20;;;;;;;;;;;20.30;70.80;;;;;;5054409;28;827;-67
2022/06/12 06:07:46;;;;;;;;;;;20.30;70.80;;;;;;5055200;28;1950;-68
2022/06/12 06:10:13;;;;;;;;;;;20.30;70.80;;;;;;5053741;28;831;-68
2022/06/12 06:12:38;;;;;;;;;;;20.30;70.80;;;;;;5054040;28;898;-67
2022/06/12 06:15:04;;;;;;;;;;;20.30;70.80;;;;;;5055802;28;1164;-68
2022/06/12 06:17:29;;;;;;;;;;;20.30;70.80;;;;;;5055289;28;946;-69
2022/06/12 06:19:55;;;;;;;;;;;20.30;70.80;;;;;;5053335;28;1170;-69
2022/06/12 06:22:20;;;;;;;;;;;20.30;70.80;;;;;;5055221;28;828;-68
2022/06/12 06:24:46;;;;;;;;;;;20.30;70.80;;;;;;5057919;28;1229;-69
2022/06/12 06:27:12;;;;;;;;;;;20.30;70.80;;;;;;5057440;28;1555;-69
2022/06/12 06:29:37;;;;;;;;;;;20.30;70.80;;;;;;5073467;28;1957;-69
2022/06/12 06:32:05;;;;;;;;;;;20.30;70.80;;;;;;5074915;28;910;-69
2022/06/12 06:34:30;;;;;;;;;;;20.30;70.80;;;;;;5057609;28;1379;-69
2022/06/12 06:36:56;;;;;;;;;;;20.30;70.80;;;;;;5053846;28;914;-67
2022/06/12 06:39:21;;;;;;;;;;;20.30;70.80;;;;;;5055125;28;898;-67
2022/06/12 06:41:47;;;;;;;;;;;20.30;70.80;;;;;;5054450;28;1132;-66
2022/06/12 06:46:56;;;;;;;;;;;20.30;70.80;;;;;;5053566;28;621;-67
2022/06/12 06:49:22;;;;;;;;;;;20.30;70.80;;;;;;5053375;28;1953;-67
2022/06/12 06:51:49;;;;;;;;;;;20.30;70.80;;;;;;5053905;28;875;-68
2022/06/12 06:54:15;;;;;;;;;;;20.30;70.80;;;;;;5053144;28;1294;-68
2022/06/12 06:56:40;;;;;;;;;;;20.30;70.80;;;;;;5054791;28;977;-67
2022/06/12 06:59:06;;;;;;;;;;;20.30;70.80;;;;;;5054202;28;1245;-67
2022/06/12 07:01:31;;;;;;;;;;;20.30;70.80;;;;;;5053619;28;876;-67
2022/06/12 07:03:56;;;;;;;;;;;20.30;70.80;;;;;;5066164;28;2071;-68
2022/06/12 07:06:22;;;;;;;;;;;20.30;70.80;;;;;;5066371;28;1170;-68
2022/06/12 07:08:47;;;;;;;;;;;20.30;71.60;;;;;;5070913;28;1898;-67
2022/06/12 07:11:13;;;;;;;;;;;20.30;70.80;;;;;;5073739;28;1028;-68
2022/06/12 07:13:38;;;;;;;;;;;20.30;70.80;;;;;;5073281;28;1215;-67
2022/06/12 07:16:04;;;;;;;;;;;20.30;70.80;;;;;;5074224;28;842;-67
2022/06/12 07:18:29;;;;;;;;;;;20.30;70.80;;;;;;5072809;28;1186;-68
2022/06/12 07:20:55;;;;;;;;;;;20.30;70.80;;;;;;5073739;28;1014;-68
2022/06/12 07:23:21;;;;;;;;;;;20.30;70.80;;;;;;5073157;28;1295;-68
2022/06/12 07:25:48;;;;;;;;;;;20.30;70.80;;;;;;5061620;28;1157;-68
2022/06/12 07:28:14;;;;;;;;;;;20.30;70.80;;;;;;5052849;28;1901;-67
2022/06/12 07:30:39;;;;;;;;;;;20.30;70.80;;;;;;5053185;28;784;-67
2022/06/12 07:33:05;;;;;;;;;;;20.30;70.80;;;;;;5056075;28;2172;-69
2022/06/12 07:35:31;;;;;;;;;;;20.30;70.80;;;;;;5063426;28;2085;-68
2022/06/12 07:37:56;;;;;;;;;;;20.30;70.80;;;;;;5064403;28;1657;-67
2022/06/12 07:40:22;;;;;;;;;;;20.30;70.80;;;;;;5072273;28;1025;-68
2022/06/12 07:42:48;;;;;;;;;;;20.30;70.80;;;;;;5072630;28;1500;-68
2022/06/12 07:45:13;;;;;;;;;;;20.30;70.80;;;;;;5059994;28;1408;-68
2022/06/12 07:47:39;;;;;;;;;;;20.30;70.80;;;;;;5052623;28;1871;-68
2022/06/12 07:50:04;;;;;;;;;;;20.30;70.80;;;;;;5052954;28;871;-68
2022/06/12 07:52:30;;;;;;;;;;;20.30;70.80;;;;;;5053515;28;1032;-67
2022/06/12 07:54:56;;;;;;;;;;;20.30;70.80;;;;;;5061429;28;1459;-68
2022/06/12 07:57:21;;;;;;;;;;;20.30;70.80;;;;;;5065239;28;1591;-68
2022/06/12 07:59:47;;;;;;;;;;;20.30;70.80;;;;;;5072896;28;846;-68
2022/06/12 08:02:12;;;;;;;;;;;20.30;70.80;;;;;;5073229;28;908;-68
2022/06/12 08:04:38;;;;;;;;;;;20.30;70.80;;;;;;5071468;28;2119;-68
2022/06/12 08:07:03;;;;;;;;;;;20.30;70.80;;;;;;5068446;28;1158;-68
2022/06/12 08:09:29;;;;;;;;;;;20.30;70.80;;;;;;5065720;28;1947;-68
2022/06/12 08:11:54;;;;;;;;;;;20.30;70.80;;;;;;5071353;28;1588;-68
2022/06/12 08:14:20;;;;;;;;;;;20.30;70.80;;;;;;5066701;28;1496;-68
2022/06/12 08:16:45;;;;;;;;;;;20.30;70.80;;;;;;5069991;28;1066;-68
2022/06/12 08:21:58;;;;;;;;;;;20.30;70.80;;;;;;5052099;28;759;-68
2022/06/12 08:24:23;;;;;;;;;;;20.30;70.80;;;;;;5052859;28;1463;-68
2022/06/12 08:26:49;;;;;;;;;;;20.30;70.80;;;;;;5071616;28;858;-68
2022/06/12 08:29:14;;;;;;;;;;;20.30;70.80;;;;;;5071847;28;1977;-67
2022/06/12 08:31:39;;;;;;;;;;;20.30;70.80;;;;;;5072557;28;1080;-67
2022/06/12 08:34:06;;;;;;;;;;;20.30;70.80;;;;;;5060302;28;1454;-68
2022/06/12 08:36:32;;;;;;;;;;;20.30;70.80;;;;;;5051807;28;878;-68
2022/06/12 08:38:57;;;;;;;;;;;20.30;70.80;;;;;;5062590;28;2255;-67
2022/06/12 08:41:31;;;;;;;;;;;20.30;70.80;;;;;;5071264;28;1042;-68
2022/06/12 08:44:23;;;;;;;;;;;20.30;70.80;;;;;;5062810;28;1402;-68
2022/06/12 08:46:50;;;;;;;;;;;20.30;70.80;;;;;;5071551;28;1145;-68
2022/06/12 08:49:28;;;;;;;;;;;20.30;70.80;;;;;;5071502;28;1901;-68
2022/06/12 08:52:12;;;;;;;;;;;20.30;70.80;;;;;;5071775;28;800;-67
2022/06/12 08:54:41;;;;;;;;;;;20.30;70.80;;;;;;5072536;28;1163;-68
2022/06/12 08:57:08;;;;;;;;;;;20.30;70.80;;;;;;5071783;28;838;-68
2022/06/12 08:59:34;;;;;;;;;;;20.30;70.80;;;;;;5071325;28;811;-68
2022/06/12 09:02:04;;;;;;;;;;;20.30;70.80;;;;;;5063421;28;1352;-68
2022/06/12 09:04:29;;;;;;;;;;;20.30;70.80;;;;;;5071239;28;1146;-68
2022/06/12 09:07:14;;;;;;;;;;;20.30;70.80;;;;;;5072210;28;795;-68
2022/06/12 09:10:06;;;;;;;;;;;20.30;70.80;;;;;;5071481;28;1955;-67
2022/06/12 09:12:37;;;;;;;;;;;20.30;70.80;;;;;;5075235;28;1123;-67
2022/06/12 09:15:10;;;;;;;;;;;20.30;70.80;;;;;;5076069;28;1254;-67
2022/06/12 09:17:36;;;;;;;;;;;20.30;70.80;;;;;;5058902;28;851;-67
2022/06/12 09:20:22;;;;;;;;;;;20.30;70.80;;;;;;5057894;28;1097;-67
2022/06/12 09:23:17;;;;;;;;;;;20.30;70.80;;;;;;5055159;28;895;-68
2022/06/12 09:25:47;;;;;;;;;;;20.30;70.80;;;;;;5058966;28;1336;-66
2022/06/12 09:28:16;;;;;;;;;;;20.30;70.80;;;;;;5074876;28;1898;-67
2022/06/12 09:31:08;;;;;;;;;;;20.30;70.80;;;;;;5074473;28;783;-67
2022/06/12 09:33:36;;;;;;;;;;;20.30;70.80;;;;;;5066491;28;1236;-67
2022/06/12 09:36:10;;;;;;;;;;;20.30;70.80;;;;;;5054429;28;815;-67
2022/06/12 09:38:38;;;;;;;;;;;20.30;70.80;;;;;;5055916;28;981;-67
2022/06/12 09:41:17;;;;;;;;;;;20.30;70.80;;;;;;5055449;28;912;-68
2022/06/12 09:43:46;;;;;;;;;;;20.30;70.80;;;;;;5054663;28;1199;-68
2022/06/12 09:46:14;;;;;;;;;;;20.30;70.80;;;;;;5055860;28;931;-68
2022/06/12 09:48:40;;;;;;;;;;;20.30;70.80;;;;;;5055714;28;1886;-67
2022/06/12 09:51:11;;;;;;;;;;;20.30;70.80;;;;;;5055645;28;871;-67
2022/06/12 09:53:58;;;;;;;;;;;20.30;70.80;;;;;;5056117;28;1282;-67
2022/06/12 09:56:29;;;;;;;;;;;20.30;70.80;;;;;;5054018;28;1061;-66
2022/06/12 09:59:15;;;;;;;;;;;20.30;70.80;;;;;;5054494;28;792;-67
2022/06/12 10:01:41;;;;;;;;;;;20.30;70.80;;;;;;5053985;28;961;-67
2022/06/12 10:04:10;;;;;;;;;;;20.30;70.80;;;;;;5054223;28;1136;-67
2022/06/12 10:06:42;;;;;;;;;;;20.30;70.80;;;;;;5054452;28;895;-68
2022/06/12 10:09:26;;;;;;;;;;;20.30;70.80;;;;;;5053894;28;1953;-69
2022/06/12 10:11:56;;;;;;;;;;;20.30;70.80;;;;;;5054500;28;907;-68
2022/06/12 10:14:32;;;;;;;;;;;20.30;70.80;;;;;;5054104;28;1347;-68
2022/06/12 10:17:04;;;;;;;;;;;20.30;70.80;;;;;;5054211;28;888;-68
2022/06/12 10:19:33;;;;;;;;;;;20.30;71.60;;;;;;5053665;28;1166;-68
2022/06/12 10:22:00;;;;;;;;;;;20.30;70.80;;;;;;5052908;28;1340;-68
2022/06/12 10:24:26;;;;;;;;;;;20.30;70.80;;;;;;5056081;28;1302;-67
2022/06/12 10:27:02;;;;;;;;;;;20.30;70.80;;;;;;5075126;28;886;-67
2022/06/12 10:29:28;;;;;;;;;;;20.30;70.80;;;;;;5073982;28;1964;-67
2022/06/12 10:32:01;;;;;;;;;;;20.30;70.80;;;;;;5074243;28;901;-66
2022/06/12 10:34:30;;;;;;;;;;;20.30;70.80;;;;;;5058402;28;1232;-67
2022/06/12 10:36:56;;;;;;;;;;;20.30;70.80;;;;;;5054942;28;847;-69
2022/06/12 10:39:25;;;;;;;;;;;20.30;70.80;;;;;;5053579;28;985;-69
2022/06/12 10:41:52;;;;;;;;;;;20.30;70.80;;;;;;5053016;28;780;-68
2022/06/12 10:44:26;;;;;;;;;;;20.30;70.80;;;;;;5054885;28;1266;-69
2022/06/12 10:46:52;;;;;;;;;;;20.30;70.80;;;;;;5053476;28;1431;-69
2022/06/12 10:49:18;;;;;;;;;;;20.30;70.80;;;;;;5053802;28;1965;-68
2022/06/12 10:51:44;;;;;;;;;;;20.30;70.80;;;;;;5036465;28;942;-68
2022/06/12 10:54:11;;;;;;;;;;;20.30;70.80;;;;;;5053139;28;1200;-68
2022/06/12 10:56:41;;;;;;;;;;;20.30;70.80;;;;;;5053650;28;901;-69
2022/06/12 10:59:09;;;;;;;;;;;20.30;70.80;;;;;;5053252;28;962;-69
2022/06/12 11:01:53;;;;;;;;;;;20.30;70.80;;;;;;5052846;28;815;-69
2022/06/12 11:04:28;;;;;;;;;;;20.30;70.80;;;;;;5053299;28;1304;-68
2022/06/12 11:06:59;;;;;;;;;;;20.30;70.80;;;;;;5054249;28;1053;-65
2022/06/12 11:09:27;;;;;;;;;;;20.30;70.80;;;;;;5054114;28;1894;-67
2022/06/12 11:11:56;;;;;;;;;;;20.30;70.80;;;;;;5052480;28;1025;-67
2022/06/12 11:14:34;;;;;;;;;;;20.30;70.80;;;;;;5053234;28;1255;-67
2022/06/12 11:17:26;;;;;;;;;;;20.30;70.80;;;;;;5094690;22;2371;-72
2022/06/12 11:20:10;;;;;;;;;;;20.30;70.80;;;;;;5086783;28;1154;-72
2022/06/12 11:22:45;;;;;;;;;;;20.30;70.80;;;;;;5076604;28;1183;-71
2022/06/12 11:25:13;;;;;;;;;;;20.30;70.80;;;;;;5087636;28;1130;-71
2022/06/12 11:27:38;;;;;;;;;;;20.30;70.80;;;;;;5064658;28;1205;-71
2022/06/12 11:30:16;;;;;;;;;;;20.30;70.80;;;;;;5054022;28;1914;-71
2022/06/12 11:32:46;;;;;;;;;;;20.30;70.80;;;;;;5053563;28;1194;-71
2022/06/12 11:35:27;;;;;;;;;;;20.30;70.80;;;;;;5036550;28;895;-71
2022/06/12 11:37:52;;;;;;;;;;;20.30;70.80;;;;;;5036218;28;1329;-71
2022/06/12 11:40:31;;;;;;;;;;;20.30;70.80;;;;;;5060070;28;1997;-71
2022/06/12 11:43:03;;;;;;;;;;;20.30;70.80;;;;;;5029467;28;1169;-71
2022/06/12 11:45:38;;;;;;;;;;;20.30;70.80;;;;;;5045613;28;1285;-71
2022/06/12 11:48:22;;;;;;;;;;;20.30;70.80;;;;;;5062868;28;1886;-70
2022/06/12 11:50:57;;;;;;;;;;;20.30;70.80;;;;;;5064332;28;1271;-71
2022/06/12 11:53:25;;;;;;;;;;;20.30;70.80;;;;;;5063782;28;1196;-70
2022/06/12 11:55:53;;;;;;;;;;;20.30;70.80;;;;;;5063819;28;1826;-74
2022/06/12 11:58:22;;;;;;;;;;;20.30;70.80;;;;;;5048281;28;1768;-73
2022/06/12 12:00:53;;;;;;;;;;;20.30;70.80;;;;;;5070896;28;1146;-74
2022/06/12 12:03:18;;;;;;;;;;;20.30;70.80;;;;;;5046480;28;1133;-75
2022/06/12 12:05:45;;;;;;;;;;;20.30;70.70;;;;;;5067812;28;1203;-74
2022/06/12 12:08:15;;;;;;;;;;;20.30;70.80;;;;;;5073495;28;1898;-74
2022/06/12 12:10:48;;;;;;;;;;;20.30;70.80;;;;;;5055862;28;934;-73
2022/06/12 12:13:29;;;;;;;;;;;20.30;70.70;;;;;;5055678;28;819;-73
2022/06/12 12:15:56;;;;;;;;;;;20.30;70.80;;;;;;5055854;28;958;-73
2022/06/12 12:18:33;;;;;;;;;;;20.30;70.80;;;;;;5054536;28;1227;-74
2022/06/12 12:20:58;;;;;;;;;;;20.30;70.80;;;;;;5073311;28;787;-74
2022/06/12 12:23:25;;;;;;;;;;;20.30;70.70;;;;;;5055828;28;1013;-73
2022/06/12 12:25:53;;;;;;;;;;;20.30;70.70;;;;;;5043037;28;1114;-74
2022/06/12 12:28:23;;;;;;;;;;;20.30;70.80;;;;;;5061430;28;1957;-74
2022/06/12 12:30:50;;;;;;;;;;;20.30;70.70;;;;;;5045658;28;1140;-72
2022/06/12 12:33:16;;;;;;;;;;;20.30;70.80;;;;;;5046456;28;1184;-72
2022/06/12 12:41:25;;;;;;;;;;;20.30;70.70;;;;;;5062097;28;1797;-74
2022/06/12 12:43:52;;;;;;;;;;;20.30;70.70;;;;;;5047541;28;1324;-72
2022/06/12 12:46:17;;;;;;;;;;;20.30;70.70;;;;;;5043871;28;1205;-74
2022/06/12 12:48:44;;;;;;;;;;;20.30;70.70;;;;;;5026774;28;1898;-75
2022/06/12 12:51:10;;;;;;;;;;;20.30;70.70;;;;;;5044945;28;1294;-70
2022/06/12 12:53:36;;;;;;;;;;;20.30;70.70;;;;;;5044994;28;1251;-71
2022/06/12 12:56:05;;;;;;;;;;;20.40;70.80;;;;;;5043758;28;1240;-70
2022/06/12 12:58:31;;;;;;;;;;;20.30;70.80;;;;;;5044693;28;1381;-73
2022/06/12 13:01:01;;;;;;;;;;;20.30;70.70;;;;;;5027268;28;1874;-71
2022/06/12 13:03:46;;;;;;;;;;;20.30;70.70;;;;;;5066231;28;1371;-72
2022/06/12 13:06:18;;;;;;;;;;;20.30;70.70;;;;;;5046447;28;1394;-72
2022/06/12 13:09:02;;;;;;;;;;;20.30;70.70;;;;;;5037053;28;1940;-72
2022/06/12 13:11:46;;;;;;;;;;;20.30;70.70;;;;;;5034847;28;894;-72
2022/06/12 13:14:27;;;;;;;;;;;20.30;70.70;;;;;;5052763;28;819;-71
2022/06/12 13:16:54;;;;;;;;;;;20.30;70.70;;;;;;5052931;28;1205;-73
2022/06/12 13:19:38;;;;;;;;;;;20.30;70.70;;;;;;5052902;28;904;-74
2022/06/12 13:22:06;;;;;;;;;;;20.30;70.70;;;;;;5052927;28;823;-74
2022/06/12 13:24:33;;;;;;;;;;;20.30;70.70;;;;;;5052960;28;855;-73
2022/06/12 13:27:08;;;;;;;;;;;20.30;70.70;;;;;;5034985;28;1220;-74
2022/06/12 13:29:34;;;;;;;;;;;20.30;70.70;;;;;;5052695;28;1959;-74
2022/06/12 13:32:00;;;;;;;;;;;20.40;70.80;;;;;;5034910;28;1476;-73
2022/06/12 13:34:26;;;;;;;;;;;20.40;70.80;;;;;;5034995;28;795;-75
2022/06/12 13:36:52;;;;;;;;;;;20.30;70.70;;;;;;5035450;28;2255;-73
2022/06/12 13:39:28;;;;;;;;;;;20.30;70.70;;;;;;5052994;28;1302;-75
2022/06/12 13:42:00;;;;;;;;;;;20.30;70.70;;;;;;5046239;28;1679;-74
2022/06/12 13:44:26;;;;;;;;;;;20.40;70.80;;;;;;5052895;28;2237;-74
2022/06/12 13:46:51;;;;;;;;;;;20.30;70.70;;;;;;5061228;28;1361;-74
2022/06/12 13:49:22;;;;;;;;;;;20.40;70.80;;;;;;5026036;28;1953;-75
2022/06/12 13:51:52;;;;;;;;;;;20.40;67.70;;;;;;5043062;28;1057;-75
2022/06/12 13:54:19;;;;;;;;;;;20.50;66.70;;;;;;5053743;28;890;-75
2022/06/12 13:57:04;;;;;;;;;;;20.50;66.50;;;;;;5055215;28;1198;-73
2022/06/12 13:59:33;;;;;;;;;;;20.60;66.20;;;;;;5058329;28;1037;-73
2022/06/12 14:02:14;;;;;;;;;;;20.60;65.50;;;;;;5049227;28;1603;-72
2022/06/12 14:04:47;;;;;;;;;;;20.70;64.10;;;;;;5033730;28;1600;-72
2022/06/12 14:07:13;;;;;;;;;;;20.70;64.00;;;;;;5065878;28;1721;-72
2022/06/12 14:09:38;;;;;;;;;;;20.80;62.40;;;;;;5049427;28;1883;-72
2022/06/12 14:12:04;;;;;;;;;;;20.80;61.50;;;;;;5044247;28;1505;-73
2022/06/12 14:14:42;;;;;;;;;;;20.80;62.10;;;;;;5050729;28;1529;-72
2022/06/12 14:17:20;;;;;;;;;;;20.80;61.60;;;;;;5046991;28;1498;-74
2022/06/12 14:19:55;;;;;;;;;;;20.90;60.70;;;;;;5062437;28;1563;-72
2022/06/12 14:22:21;;;;;;;;;;;20.90;59.10;;;;;;5064584;28;1777;-73
2022/06/12 14:24:57;;;;;;;;;;;20.90;59.80;;;;;;5068779;28;1538;-74
2022/06/12 14:27:36;;;;;;;;;;;20.90;60.10;;;;;;5069077;28;1268;-72
2022/06/12 14:30:02;;;;;;;;;;;20.90;59.10;;;;;;5029542;28;1902;-72
2022/06/12 14:32:28;;;;;;;;;;;20.90;58.90;;;;;;5048953;28;1496;-73
2022/06/12 14:35:06;;;;;;;;;;;21.00;57.90;;;;;;5072904;28;1518;-72
2022/06/12 14:37:31;;;;;;;;;;;20.90;57.50;;;;;;5059833;28;1525;-74
2022/06/12 14:40:00;;;;;;;;;;;21.00;57.20;;;;;;5040195;28;1300;-74
2022/06/12 14:42:26;;;;;;;;;;;21.00;57.10;;;;;;5042949;28;1549;-74
2022/06/12 14:44:52;;;;;;;;;;;21.00;57.30;;;;;;5062574;28;1536;-71
2022/06/12 14:47:25;;;;;;;;;;;21.00;56.20;;;;;;5043022;28;1602;-72
2022/06/12 14:49:52;;;;;;;;;;;21.00;56.70;;;;;;5037448;28;1955;-72
2022/06/12 14:52:23;;;;;;;;;;;21.00;56.70;;;;;;5037364;28;1014;-72
2022/06/12 14:54:49;;;;;;;;;;;21.00;56.50;;;;;;5021708;28;1213;-73
2022/06/12 14:57:14;;;;;;;;;;;21.00;56.60;;;;;;5037273;28;1178;-73
2022/06/12 14:59:40;;;;;;;;;;;21.00;56.70;;;;;;5054858;28;883;-71
2022/06/12 15:02:22;;;;;;;;;;;21.00;56.20;;;;;;5020260;28;1187;-71
2022/06/12 15:04:48;;;;;;;;;;;21.00;55.50;;;;;;5037268;28;1197;-71
2022/06/12 15:07:14;;;;;;;;;;;21.00;55.80;;;;;;5054197;28;1318;-71